首页
METAR-TAF:

METAR-TAF

机场 :

Hayden, 科羅拉多州, 美国

纬度: 40-29N, 经度: 107-13W, 海拔: 2012米

当前天气观测

该预报发布于20分钟前的15:56 UTC
风速11节,风向西
温度 -5°C
湿度 68%
气压 1018 hPa
能見度: 14.5公里
少量云层高于2300英尺
多云层高于3400英尺
阴天层高于4300英尺
小雪

METAR: KHDN 171556Z AUTO 27011KT 9SM -SN FEW023 BKN034 OVC043 M05/M10 A3006 RMK AO2 SLP212 P0000 T10501100 FZRANO

时间: 09:16 (16:16 UTC)

预报

该预报发布于12分钟前的16:04 UTC
预报有效从17日的 16点(UTC)到 18日的 12点(UTC)
风速12节,风向西
能見度: 10公里
少量云层高于1600英尺
多云层高于3500英尺
阴天层高于4500英尺
小雪
从 17日的 1800点(UTC)
风速8节,风向西转西北
能見度: 10公里
散云层高于3500英尺
多云层高于6000英尺
从 18日的 0200点(UTC)
风速3节,风向东南
能見度: 10公里
少量云层高于4000英尺
多云层高于6000英尺

TAF: KHDN 171604Z 1716/1812 28012KT P6SM -SN FEW016 BKN035 OVC045 FM171800 29008KT P6SM SCT035 BKN060 FM180200 13003KT P6SM FEW040 BKN060

超过4000个机场的气象观测和天气预报(METAR&TAF报告)。

可查询的气象台以黄色和红色小点在地图上表示。

将鼠标移到小点上方,可查看气象台名称。

然后点击查看天气观测和预报。

如需切换地图:点击带黑十字的绿色按钮放大地图;点击带横线的绿色按钮缩小地图;或者点击绿色箭头查看邻近地区的地图。


METAR-TAF: